Time;durP1;ratioP1;P1;durP2;ratioP2;P2;SDS_P1;SDS_P2;PMS_P1;PMS_P2;Temp;Humidity;BMP_temperature;BMP_pressure;BME280_temperature;BME280_humidity;BME280_pressure;Samples;Min_cycle;Max_cycle;Signal;HPM_P1;HPM_P2
2024/01/01 00:02:23;;;;;;;2.65;1.77;;;7.80;99.90;;;;;;5063967;28;20037;-69
2024/01/01 00:04:48;;;;;;;2.50;2.30;;;7.80;99.90;;;;;;5058497;28;20044;-69
2024/01/01 00:07:14;;;;;;;9.07;2.38;;;7.80;99.90;;;;;;5097218;28;20055;-68
2024/01/01 00:09:39;;;;;;;6.15;1.27;;;7.80;99.90;;;;;;5049106;28;20076;-67
2024/01/01 00:12:08;;;;;;;5.43;2.17;;;7.80;99.90;;;;;;5066167;28;20110;-67
2024/01/01 00:14:34;;;;;;;2.47;2.28;;;7.80;99.90;;;;;;5059359;28;20041;-69
2024/01/01 00:16:59;;;;;;;4.07;2.60;;;7.90;99.90;;;;;;5065270;28;20082;-68
2024/01/01 00:19:25;;;;;;;2.22;2.03;;;7.90;99.90;;;;;;5052604;28;20095;-66
2024/01/01 00:21:51;;;;;;;2.85;2.13;;;7.90;99.90;;;;;;5053659;28;20040;-67
2024/01/01 00:24:17;;;;;;;2.58;2.30;;;7.90;99.90;;;;;;5052992;28;20033;-68
2024/01/01 00:26:43;;;;;;;9.70;3.67;;;7.90;99.90;;;;;;5068511;28;20044;-67
2024/01/01 00:29:09;;;;;;;2.42;2.22;;;7.90;99.90;;;;;;5057275;28;20041;-69
2024/01/01 00:31:36;;;;;;;2.00;1.80;;;7.90;99.90;;;;;;5060723;28;20050;-66
2024/01/01 00:34:02;;;;;;;4.72;2.72;;;7.90;99.90;;;;;;5064154;28;20140;-69
2024/01/01 00:36:27;;;;;;;5.47;2.70;;;7.90;99.90;;;;;;5069893;28;20132;-69
2024/01/01 00:38:53;;;;;;;2.15;1.10;;;7.90;99.90;;;;;;5054878;28;20079;-67
2024/01/01 00:41:19;;;;;;;1.90;1.20;;;7.90;99.90;;;;;;5067843;28;20024;-67
2024/01/01 00:43:45;;;;;;;3.45;2.08;;;7.90;99.90;;;;;;5066017;28;20039;-67
2024/01/01 00:46:10;;;;;;;0.73;0.73;;;8.00;99.90;;;;;;5066916;28;20074;-67
2024/01/01 00:48:36;;;;;;;1.90;1.70;;;8.00;99.90;;;;;;5056338;28;20105;-67
2024/01/01 00:51:02;;;;;;;3.83;1.13;;;8.00;99.90;;;;;;5068666;28;20047;-67
2024/01/01 00:53:28;;;;;;;3.05;2.00;;;8.00;99.90;;;;;;5066147;28;20460;-66
2024/01/01 00:55:53;;;;;;;1.75;1.65;;;8.00;99.90;;;;;;5055087;28;20124;-67
2024/01/01 00:58:19;;;;;;;3.92;2.53;;;8.00;99.90;;;;;;5065166;28;20128;-66
2024/01/01 01:00:44;;;;;;;1.17;0.88;;;8.00;99.90;;;;;;5091092;28;20131;-67
2024/01/01 01:03:10;;;;;;;3.40;1.70;;;8.00;99.90;;;;;;5064214;28;20032;-67
2024/01/01 01:05:35;;;;;;;16.73;6.45;;;8.00;99.90;;;;;;5059841;28;20077;-67
2024/01/01 01:08:01;;;;;;;3.40;2.55;;;8.00;99.90;;;;;;5055823;28;20110;-66
2024/01/01 01:10:27;;;;;;;14.27;1.42;;;7.90;99.90;;;;;;5065035;28;20049;-67
2024/01/01 01:12:55;;;;;;;4.28;3.22;;;7.90;99.90;;;;;;5057103;28;20040;-66
2024/01/01 01:15:26;;;;;;;4.65;3.63;;;7.90;99.90;;;;;;5081555;28;20032;-67
2024/01/01 01:17:52;;;;;;;2.15;1.95;;;7.90;99.90;;;;;;5069987;28;20048;-68
2024/01/01 01:20:18;;;;;;;2.08;1.90;;;7.90;99.90;;;;;;5068925;28;20174;-67
2024/01/01 01:22:44;;;;;;;3.03;2.40;;;7.90;99.90;;;;;;5059546;28;20096;-67
2024/01/01 01:25:12;;;;;;;5.70;1.90;;;7.90;99.90;;;;;;5057869;28;20753;-67
2024/01/01 01:27:40;;;;;;;2.65;2.15;;;7.90;99.90;;;;;;5048093;28;20048;-67
2024/01/01 01:30:06;;;;;;;6.50;2.53;;;7.90;99.90;;;;;;5049848;28;20527;-66
2024/01/01 01:32:31;;;;;;;7.57;2.95;;;7.90;99.90;;;;;;5089909;28;20076;-67
2024/01/01 01:34:57;;;;;;;3.75;1.52;;;7.90;99.90;;;;;;5055451;28;20075;-67
2024/01/01 01:37:22;;;;;;;4.93;2.53;;;7.90;99.90;;;;;;5066458;28;20068;-68
2024/01/01 01:39:48;;;;;;;4.05;2.30;;;7.90;99.90;;;;;;5062533;28;20036;-66
2024/01/01 01:42:13;;;;;;;21.45;7.82;;;7.90;99.90;;;;;;5070430;28;20070;-68
2024/01/01 01:44:39;;;;;;;5.60;2.83;;;7.90;99.90;;;;;;5064078;28;20036;-66
2024/01/01 01:47:05;;;;;;;2.47;1.27;;;7.90;99.90;;;;;;5061352;28;20053;-67
2024/01/01 01:49:31;;;;;;;4.85;2.28;;;7.90;99.90;;;;;;5061564;28;20055;-67
2024/01/01 01:52:01;;;;;;;2.92;1.98;;;7.90;99.90;;;;;;5060985;28;20084;-67
2024/01/01 01:54:26;;;;;;;1.35;1.20;;;7.90;99.90;;;;;;5063206;28;20099;-67
2024/01/01 01:56:54;;;;;;;1.27;1.17;;;7.80;99.90;;;;;;5062155;28;20404;-67
2024/01/01 01:59:20;;;;;;;1.23;1.13;;;7.80;99.90;;;;;;5061457;28;20049;-69
2024/01/01 02:01:46;;;;;;;3.20;1.38;;;7.80;99.90;;;;;;5059142;28;20040;-68
2024/01/01 02:04:13;;;;;;;7.22;1.58;;;7.80;99.90;;;;;;5059728;28;20106;-67
2024/01/01 02:06:39;;;;;;;0.82;0.38;;;7.80;99.90;;;;;;5067194;28;20044;-66
2024/01/01 02:09:06;;;;;;;5.07;1.50;;;7.80;99.90;;;;;;5087601;28;20098;-68
2024/01/01 02:11:31;;;;;;;5.47;1.95;;;7.80;99.90;;;;;;5061491;28;20103;-67
2024/01/01 02:14:15;;;;;;;3.00;0.85;;;7.80;99.90;;;;;;5063973;28;20508;-67
2024/01/01 02:16:41;;;;;;;5.05;1.40;;;7.70;99.90;;;;;;5090242;28;20044;-67
2024/01/01 02:19:28;;;;;;;0.77;0.75;;;7.70;99.90;;;;;;5065948;28;20045;-66
2024/01/01 02:21:55;;;;;;;2.78;0.98;;;7.70;99.90;;;;;;5090823;28;20472;-67
2024/01/01 02:24:21;;;;;;;0.30;0.30;;;7.70;99.90;;;;;;5059752;28;20039;-68
2024/01/01 02:26:47;;;;;;;3.65;1.17;;;7.60;99.90;;;;;;5058870;28;22304;-67
2024/01/01 02:29:14;;;;;;;6.88;0.65;;;7.60;99.90;;;;;;5066339;28;20055;-67
2024/01/01 02:31:40;;;;;;;0.75;0.75;;;7.50;99.90;;;;;;5057572;28;20044;-68
2024/01/01 02:34:05;;;;;;;6.70;0.85;;;7.50;99.90;;;;;;5064828;28;20090;-67
2024/01/01 02:36:35;;;;;;;0.30;0.30;;;7.50;99.90;;;;;;5059901;28;20036;-67
2024/01/01 02:39:02;;;;;;;2.90;1.30;;;7.40;99.90;;;;;;5044584;28;20050;-69
2024/01/01 02:41:28;;;;;;;0.93;0.93;;;7.40;99.90;;;;;;5045478;28;20487;-68
2024/01/01 02:43:53;;;;;;;0.47;0.40;;;7.40;99.90;;;;;;5061361;28;20035;-67
2024/01/01 02:46:19;;;;;;;0.20;0.20;;;7.40;99.90;;;;;;5060813;28;20040;-68
2024/01/01 02:48:44;;;;;;;0.47;0.43;;;7.40;99.90;;;;;;5066312;28;20082;-67
2024/01/01 02:51:10;;;;;;;0.22;0.22;;;7.30;99.90;;;;;;5061764;28;20380;-68
2024/01/01 02:53:35;;;;;;;7.85;1.55;;;7.40;99.90;;;;;;5064605;28;20502;-69
2024/01/01 02:56:01;;;;;;;5.70;1.33;;;7.40;99.90;;;;;;5058599;28;20099;-67
2024/01/01 02:58:27;;;;;;;0.75;0.20;;;7.40;99.90;;;;;;5059153;28;20443;-67
2024/01/01 03:00:53;;;;;;;0.25;0.25;;;7.40;99.90;;;;;;5060416;28;20036;-68
2024/01/01 03:03:20;;;;;;;1.15;1.15;;;7.40;99.90;;;;;;5061813;28;20057;-67
2024/01/01 03:05:45;;;;;;;0.25;0.25;;;7.30;99.90;;;;;;5057576;28;20040;-67
2024/01/01 03:08:11;;;;;;;0.45;0.43;;;7.30;99.90;;;;;;5059106;28;20044;-67
2024/01/01 03:10:37;;;;;;;0.80;0.15;;;7.30;99.90;;;;;;5060730;28;20044;-66
2024/01/01 03:13:03;;;;;;;0.45;0.35;;;7.20;99.90;;;;;;5062641;28;20044;-67
2024/01/01 03:15:29;;;;;;;0.30;0.30;;;7.20;99.90;;;;;;5060478;28;20128;-67
2024/01/01 03:17:54;;;;;;;0.70;0.63;;;7.20;99.90;;;;;;5082034;28;20091;-69
2024/01/01 03:20:20;;;;;;;0.00;0.00;;;7.20;99.90;;;;;;5055411;28;20091;-68
2024/01/01 03:22:45;;;;;;;0.85;0.75;;;7.20;99.90;;;;;;5062352;28;20039;-67
2024/01/01 03:25:11;;;;;;;5.15;0.75;;;7.10;99.90;;;;;;5058761;28;20105;-68
2024/01/01 03:27:37;;;;;;;0.70;0.68;;;7.10;99.90;;;;;;5065412;28;20036;-69
2024/01/01 03:30:08;;;;;;;0.10;0.10;;;7.10;99.90;;;;;;5063303;28;20052;-68
2024/01/01 03:32:37;;;;;;;0.75;0.75;;;7.10;99.90;;;;;;5065432;28;20483;-67
2024/01/01 03:35:04;;;;;;;0.45;0.35;;;7.10;99.90;;;;;;5065866;28;20431;-68
2024/01/01 03:37:30;;;;;;;0.55;0.55;;;7.10;99.90;;;;;;5073966;28;20040;-69
2024/01/01 03:39:55;;;;;;;0.10;0.10;;;7.10;99.90;;;;;;5064547;28;20037;-68
2024/01/01 03:42:21;;;;;;;0.30;0.20;;;7.10;99.90;;;;;;5072462;28;20078;-68
2024/01/01 03:44:46;;;;;;;0.20;0.20;;;7.10;99.90;;;;;;5065953;28;20114;-68
2024/01/01 03:47:12;;;;;;;1.42;0.30;;;7.00;99.90;;;;;;5072929;28;20042;-69
2024/01/01 03:49:39;;;;;;;0.17;0.17;;;7.00;99.90;;;;;;5066742;28;20044;-67
2024/01/01 03:52:05;;;;;;;0.17;0.17;;;7.00;99.90;;;;;;5064691;28;20040;-68
2024/01/01 03:54:31;;;;;;;0.10;0.10;;;7.00;99.90;;;;;;5062073;28;20044;-66
2024/01/01 03:56:56;;;;;;;0.25;0.25;;;7.00;99.90;;;;;;5066192;28;20060;-66
2024/01/01 03:59:22;;;;;;;1.75;0.98;;;7.00;99.90;;;;;;5060884;28;20033;-67
2024/01/01 04:01:47;;;;;;;0.10;0.10;;;7.00;99.90;;;;;;5062899;28;20166;-65
2024/01/01 04:04:13;;;;;;;0.32;0.10;;;7.00;99.90;;;;;;5070559;28;20074;-67
2024/01/01 04:06:38;;;;;;;0.17;0.17;;;7.00;99.90;;;;;;5058741;28;20387;-67
2024/01/01 04:09:04;;;;;;;0.08;0.08;;;7.00;99.90;;;;;;5067753;28;20040;-67
2024/01/01 04:11:30;;;;;;;0.73;0.70;;;7.00;99.90;;;;;;5066090;28;20055;-68
2024/01/01 04:13:56;;;;;;;0.25;0.25;;;7.00;99.90;;;;;;5063796;28;20102;-67
2024/01/01 04:16:21;;;;;;;0.17;0.17;;;7.00;99.90;;;;;;5062565;28;20037;-67
2024/01/01 04:18:47;;;;;;;0.30;0.30;;;7.00;99.90;;;;;;5063296;28;20502;-66
2024/01/01 04:21:12;;;;;;;0.10;0.10;;;7.00;99.90;;;;;;5065771;28;20080;-67
2024/01/01 04:23:38;;;;;;;0.00;0.00;;;7.00;99.90;;;;;;5067917;28;20052;-67
2024/01/01 04:26:04;;;;;;;0.93;0.93;;;6.90;99.90;;;;;;5069995;28;20600;-68
2024/01/01 04:28:29;;;;;;;0.30;0.30;;;7.00;99.90;;;;;;5076531;28;20082;-69
2024/01/01 04:30:55;;;;;;;0.25;0.25;;;6.90;99.90;;;;;;5068164;28;20048;-68
2024/01/01 04:33:21;;;;;;;0.10;0.10;;;7.00;99.90;;;;;;5067342;28;20500;-65
2024/01/01 04:35:47;;;;;;;0.10;0.10;;;7.00;99.90;;;;;;5064788;28;20059;-68
2024/01/01 04:38:13;;;;;;;1.33;1.23;;;7.00;99.90;;;;;;5050905;28;20554;-69
2024/01/01 04:40:40;;;;;;;0.10;0.10;;;7.00;99.90;;;;;;5067624;28;20052;-68
2024/01/01 04:43:05;;;;;;;0.20;0.20;;;7.00;99.90;;;;;;5070549;28;20056;-67
2024/01/01 04:45:36;;;;;;;0.10;0.10;;;6.90;99.90;;;;;;5068934;28;20028;-68
2024/01/01 04:48:05;;;;;;;0.00;0.00;;;6.90;99.90;;;;;;5063643;28;20056;-68
2024/01/01 04:50:31;;;;;;;0.45;0.20;;;6.90;99.90;;;;;;5064632;28;20037;-68
2024/01/01 04:52:57;;;;;;;0.22;0.20;;;6.90;99.90;;;;;;5066233;28;20043;-66
2024/01/01 04:55:22;;;;;;;0.10;0.10;;;7.00;99.90;;;;;;5068971;28;20368;-67
2024/01/01 04:57:48;;;;;;;0.10;0.10;;;7.00;99.90;;;;;;5069064;28;20039;-67
2024/01/01 05:00:14;;;;;;;0.10;0.10;;;7.00;99.90;;;;;;5067824;28;20094;-68
2024/01/01 05:02:40;;;;;;;0.40;0.10;;;7.00;99.90;;;;;;5062568;28;20039;-66
2024/01/01 05:05:08;;;;;;;0.43;0.35;;;7.00;99.90;;;;;;5092817;28;20115;-66
2024/01/01 05:07:34;;;;;;;0.20;0.20;;;7.00;99.90;;;;;;5088947;28;20036;-67
2024/01/01 05:10:00;;;;;;;0.85;0.85;;;7.10;99.90;;;;;;5065934;28;20060;-67
2024/01/01 05:12:25;;;;;;;1.75;1.35;;;7.10;99.90;;;;;;5065568;28;20410;-66
2024/01/01 05:14:51;;;;;;;3.40;0.70;;;7.10;99.90;;;;;;5065714;28;20044;-66
2024/01/01 05:17:16;;;;;;;0.32;0.32;;;7.10;99.90;;;;;;5064918;28;20123;-66
2024/01/01 05:19:42;;;;;;;0.25;0.25;;;7.10;99.90;;;;;;5066807;28;20045;-67
2024/01/01 05:22:07;;;;;;;0.20;0.20;;;7.10;99.90;;;;;;5065258;28;20452;-67
2024/01/01 05:24:35;;;;;;;0.10;0.10;;;7.10;99.90;;;;;;5063260;28;20032;-66
2024/01/01 05:27:01;;;;;;;0.10;0.10;;;7.10;99.90;;;;;;5067551;28;20028;-66
2024/01/01 05:29:27;;;;;;;0.10;0.10;;;7.10;99.90;;;;;;5068900;28;20041;-68
2024/01/01 05:31:54;;;;;;;1.65;0.55;;;7.10;99.90;;;;;;5071439;28;20052;-69
2024/01/01 05:34:20;;;;;;;0.70;0.30;;;7.10;99.90;;;;;;5096022;28;20380;-67
2024/01/01 05:36:45;;;;;;;3.13;0.50;;;7.10;99.90;;;;;;5063071;28;20093;-66
2024/01/01 05:39:11;;;;;;;0.30;0.30;;;7.10;99.90;;;;;;5069163;28;20040;-69
2024/01/01 05:41:36;;;;;;;0.10;0.10;;;7.10;99.90;;;;;;5067414;28;20158;-68
2024/01/01 05:44:02;;;;;;;0.25;0.20;;;7.10;99.90;;;;;;5068842;28;20075;-67
2024/01/01 05:46:27;;;;;;;0.85;0.85;;;7.10;99.90;;;;;;5064027;28;20090;-68
2024/01/01 05:48:53;;;;;;;1.15;0.20;;;7.10;99.90;;;;;;5091998;28;20044;-66
2024/01/01 05:51:18;;;;;;;0.10;0.10;;;7.10;99.90;;;;;;5065722;28;20040;-65
2024/01/01 05:53:44;;;;;;;0.30;0.30;;;7.10;99.90;;;;;;5066353;28;20487;-68
2024/01/01 05:56:09;;;;;;;0.10;0.10;;;7.10;99.90;;;;;;5064730;28;20032;-67
2024/01/01 05:58:35;;;;;;;0.10;0.10;;;7.10;99.90;;;;;;5065059;28;20040;-67
2024/01/01 06:01:00;;;;;;;0.28;0.28;;;7.10;99.90;;;;;;5066977;28;20040;-68
2024/01/01 06:03:26;;;;;;;2.50;0.35;;;7.10;99.90;;;;;;5067123;28;20070;-68
2024/01/01 06:05:53;;;;;;;1.13;0.70;;;7.10;99.90;;;;;;5089459;28;20492;-67
2024/01/01 06:08:18;;;;;;;0.32;0.25;;;7.10;99.90;;;;;;5064934;28;20539;-67
2024/01/01 06:10:44;;;;;;;0.20;0.20;;;7.10;99.90;;;;;;5066425;28;20043;-66
2024/01/01 06:13:09;;;;;;;0.17;0.17;;;7.10;99.90;;;;;;5066000;28;20040;-66
2024/01/01 06:15:35;;;;;;;0.10;0.10;;;7.10;99.90;;;;;;5066459;28;20044;-66
2024/01/01 06:18:01;;;;;;;0.52;0.52;;;7.10;99.90;;;;;;5064252;28;20041;-68
2024/01/01 06:20:26;;;;;;;1.65;1.55;;;7.10;99.90;;;;;;5088719;28;20486;-67
2024/01/01 06:22:52;;;;;;;0.65;0.10;;;7.10;99.90;;;;;;5057857;28;20443;-67
2024/01/01 06:25:17;;;;;;;0.10;0.10;;;7.10;99.90;;;;;;5065903;28;20479;-67
2024/01/01 06:27:43;;;;;;;1.65;0.55;;;7.10;99.90;;;;;;5059386;28;20506;-67
2024/01/01 06:30:09;;;;;;;0.10;0.10;;;7.10;99.90;;;;;;5067545;28;20134;-68
2024/01/01 06:32:34;;;;;;;0.10;0.10;;;7.10;99.90;;;;;;5063282;28;20495;-67
2024/01/01 06:35:00;;;;;;;0.10;0.10;;;7.10;99.90;;;;;;5067293;28;20036;-66
2024/01/01 06:37:26;;;;;;;0.10;0.10;;;7.10;99.90;;;;;;5061855;28;20506;-67
2024/01/01 06:39:51;;;;;;;0.30;0.30;;;7.10;99.90;;;;;;5063698;28;20032;-66
2024/01/01 06:42:17;;;;;;;0.73;0.73;;;7.10;99.90;;;;;;5063730;28;20033;-67
2024/01/01 06:44:43;;;;;;;0.77;0.77;;;7.10;99.90;;;;;;5061087;28;20041;-67
2024/01/01 06:47:09;;;;;;;0.20;0.20;;;7.10;99.90;;;;;;5064091;28;20033;-68
2024/01/01 06:49:34;;;;;;;0.50;0.45;;;7.10;99.90;;;;;;5065974;28;20040;-67
2024/01/01 06:52:00;;;;;;;0.52;0.52;;;7.10;99.90;;;;;;5064034;28;20048;-67
2024/01/01 06:54:25;;;;;;;0.20;0.20;;;7.10;99.90;;;;;;5087205;28;20048;-68
2024/01/01 06:56:51;;;;;;;0.82;0.82;;;7.10;99.90;;;;;;5070394;28;20048;-67
2024/01/01 06:59:17;;;;;;;0.15;0.15;;;7.00;99.90;;;;;;5064165;28;20119;-67
2024/01/01 07:01:43;;;;;;;0.25;0.25;;;7.00;99.90;;;;;;5069740;28;20048;-67
2024/01/01 07:04:09;;;;;;;0.10;0.10;;;6.90;99.90;;;;;;5097569;28;20090;-67
2024/01/01 07:06:36;;;;;;;0.10;0.10;;;6.90;99.90;;;;;;5066642;28;20078;-67
2024/01/01 07:09:02;;;;;;;0.00;0.00;;;6.80;99.90;;;;;;5066733;28;20157;-67
2024/01/01 07:11:28;;;;;;;0.30;0.20;;;6.80;99.90;;;;;;5069502;28;20094;-66
2024/01/01 07:13:54;;;;;;;2.17;0.45;;;6.80;99.90;;;;;;5065204;28;20036;-67
2024/01/01 07:16:19;;;;;;;0.52;0.52;;;6.90;99.90;;;;;;5069045;28;20043;-67
2024/01/01 07:18:45;;;;;;;0.65;0.52;;;6.90;99.90;;;;;;5064833;28;20077;-66
2024/01/01 07:21:11;;;;;;;0.15;0.15;;;7.00;99.90;;;;;;5065748;28;20124;-65
2024/01/01 07:23:36;;;;;;;0.38;0.38;;;7.00;99.90;;;;;;5066928;28;20070;-67
2024/01/01 07:26:02;;;;;;;0.20;0.20;;;7.00;99.90;;;;;;5064360;28;20036;-67
2024/01/01 07:28:27;;;;;;;0.17;0.17;;;7.10;99.90;;;;;;5067898;28;20471;-69
2024/01/01 07:30:53;;;;;;;0.20;0.20;;;7.10;99.90;;;;;;5070590;28;20169;-67
2024/01/01 07:33:18;;;;;;;0.10;0.10;;;7.10;99.90;;;;;;5063310;28;20087;-66
2024/01/01 07:35:44;;;;;;;0.65;0.65;;;7.10;99.90;;;;;;5068341;28;20132;-66
2024/01/01 07:38:10;;;;;;;1.33;1.13;;;7.10;99.90;;;;;;5067708;28;20075;-68
2024/01/01 07:40:35;;;;;;;1.65;1.30;;;7.10;99.90;;;;;;5066959;28;20044;-67
2024/01/01 07:43:02;;;;;;;1.35;0.65;;;7.10;99.90;;;;;;5064284;28;20028;-68
2024/01/01 07:45:28;;;;;;;0.25;0.20;;;7.10;99.90;;;;;;5071731;28;20074;-68
2024/01/01 07:47:54;;;;;;;0.10;0.10;;;7.10;99.90;;;;;;5066395;28;20616;-66
2024/01/01 07:50:20;;;;;;;0.32;0.13;;;7.00;99.90;;;;;;5067388;28;20032;-68
2024/01/01 07:52:45;;;;;;;0.40;0.30;;;7.00;99.90;;;;;;5067497;28;20044;-67
2024/01/01 07:55:12;;;;;;;0.73;0.68;;;7.00;99.90;;;;;;5066040;28;20465;-69
2024/01/01 07:57:38;;;;;;;0.40;0.40;;;7.10;99.90;;;;;;5065872;28;20045;-67
2024/01/01 08:00:06;;;;;;;0.57;0.57;;;7.10;99.90;;;;;;5071135;28;20390;-68
2024/01/01 08:02:32;;;;;;;0.20;0.20;;;7.20;99.90;;;;;;5061334;28;20066;-66
2024/01/01 08:04:58;;;;;;;0.35;0.30;;;7.20;99.90;;;;;;5070869;28;20048;-67
2024/01/01 08:07:24;;;;;;;1.40;1.30;;;7.20;99.90;;;;;;5063467;28;20033;-67
2024/01/01 08:09:50;;;;;;;0.20;0.20;;;7.30;99.90;;;;;;5068421;28;20198;-67
2024/01/01 08:12:15;;;;;;;0.15;0.15;;;7.30;99.90;;;;;;5068823;28;20147;-66
2024/01/01 08:14:41;;;;;;;0.10;0.10;;;7.20;99.90;;;;;;5067405;28;20024;-68
2024/01/01 08:17:08;;;;;;;0.55;0.30;;;7.30;99.90;;;;;;5069249;28;20044;-67
2024/01/01 08:19:34;;;;;;;1.65;0.38;;;7.20;99.90;;;;;;5090033;28;20040;-67
2024/01/01 08:22:00;;;;;;;1.85;1.02;;;7.30;99.90;;;;;;5067159;28;20037;-66
2024/01/01 08:24:25;;;;;;;1.45;0.98;;;7.30;99.90;;;;;;5067098;28;20040;-65
2024/01/01 08:26:51;;;;;;;7.32;0.25;;;7.20;99.90;;;;;;5061844;28;20043;-67
2024/01/01 08:29:16;;;;;;;0.75;0.75;;;7.20;99.90;;;;;;5084480;28;20037;-68
2024/01/01 08:31:42;;;;;;;11.10;0.45;;;7.20;99.90;;;;;;5062715;28;20048;-67
2024/01/01 08:34:08;;;;;;;0.65;0.40;;;7.20;99.90;;;;;;5052630;28;20143;-68
2024/01/01 08:36:34;;;;;;;3.67;3.35;;;7.10;99.90;;;;;;5077818;28;20391;-67
2024/01/01 08:38:59;;;;;;;0.65;0.20;;;7.20;99.90;;;;;;5065266;28;20512;-66
2024/01/01 08:41:25;;;;;;;0.10;0.10;;;7.20;99.90;;;;;;5070158;28;20108;-69
2024/01/01 08:43:56;;;;;;;4.07;0.30;;;7.30;99.90;;;;;;5057584;28;20483;-67
2024/01/01 08:46:26;;;;;;;0.17;0.17;;;7.30;99.90;;;;;;5057642;28;20048;-68
2024/01/01 08:48:52;;;;;;;0.20;0.20;;;7.30;99.90;;;;;;5053631;28;20041;-67
2024/01/01 08:51:18;;;;;;;0.98;0.38;;;7.30;99.90;;;;;;5069074;28;20044;-67
2024/01/01 08:53:44;;;;;;;0.15;0.15;;;7.30;99.90;;;;;;5053242;28;20128;-66
2024/01/01 08:56:10;;;;;;;0.10;0.10;;;7.30;99.90;;;;;;5051023;28;20440;-67
2024/01/01 08:58:35;;;;;;;1.95;0.50;;;7.30;99.90;;;;;;5060450;28;20048;-66
2024/01/01 09:01:01;;;;;;;0.65;0.20;;;7.30;99.90;;;;;;5079536;28;20527;-67
2024/01/01 09:03:29;;;;;;;0.30;0.30;;;7.30;99.90;;;;;;5057848;28;20400;-69
2024/01/01 09:05:56;;;;;;;0.75;0.38;;;7.30;99.90;;;;;;5053736;28;20037;-67
2024/01/01 09:08:22;;;;;;;0.57;0.25;;;7.30;99.90;;;;;;5056104;28;20123;-67
2024/01/01 09:10:47;;;;;;;1.27;0.20;;;7.30;99.90;;;;;;5067848;28;20562;-67
2024/01/01 09:13:13;;;;;;;0.10;0.10;;;7.20;99.90;;;;;;5059416;28;20541;-68
2024/01/01 09:15:38;;;;;;;0.13;0.13;;;7.20;99.90;;;;;;5067784;28;20437;-66
2024/01/01 09:18:04;;;;;;;0.28;0.20;;;7.20;99.90;;;;;;5059319;28;20471;-68
2024/01/01 09:20:30;;;;;;;2.38;0.40;;;7.30;99.90;;;;;;5061962;28;20476;-67
2024/01/01 09:22:56;;;;;;;0.17;0.13;;;7.40;99.90;;;;;;5054695;28;20036;-67
2024/01/01 09:25:22;;;;;;;0.00;0.00;;;7.30;99.90;;;;;;5060954;28;20072;-68
2024/01/01 09:27:47;;;;;;;0.28;0.28;;;7.30;99.90;;;;;;5063937;28;20138;-67
2024/01/01 09:30:13;;;;;;;0.30;0.20;;;7.40;99.90;;;;;;5046801;28;20041;-67
2024/01/01 09:32:39;;;;;;;0.32;0.25;;;7.40;99.90;;;;;;5066416;28;20040;-68
2024/01/01 09:35:05;;;;;;;2.70;2.50;;;7.40;99.90;;;;;;5067591;28;20373;-68
2024/01/01 09:37:30;;;;;;;0.68;0.30;;;7.40;99.90;;;;;;5058497;28;20036;-68
2024/01/01 09:39:56;;;;;;;0.35;0.10;;;7.40;99.90;;;;;;5064142;28;20142;-68
2024/01/01 09:42:21;;;;;;;1.65;1.35;;;7.30;99.90;;;;;;5066580;28;20062;-67
2024/01/01 09:44:50;;;;;;;0.40;0.30;;;7.30;99.90;;;;;;5064300;28;20043;-67
2024/01/01 09:47:16;;;;;;;0.20;0.20;;;7.40;99.90;;;;;;5068446;28;20047;-65
2024/01/01 09:49:42;;;;;;;0.10;0.10;;;7.40;99.90;;;;;;5065837;28;20447;-68
2024/01/01 09:52:14;;;;;;;0.70;0.70;;;7.30;99.90;;;;;;5068571;28;20379;-67
2024/01/01 09:54:40;;;;;;;0.10;0.10;;;7.40;99.90;;;;;;5062893;28;20051;-68
2024/01/01 09:57:06;;;;;;;6.93;0.90;;;7.30;99.90;;;;;;5065687;28;20151;-68
2024/01/01 09:59:39;;;;;;;0.32;0.22;;;7.30;99.90;;;;;;5065863;28;20140;-68
2024/01/01 10:02:06;;;;;;;1.33;0.32;;;7.30;99.90;;;;;;5066687;28;20390;-66
2024/01/01 10:04:32;;;;;;;0.13;0.13;;;7.30;99.90;;;;;;5062168;28;20038;-67
2024/01/01 10:07:01;;;;;;;0.95;0.75;;;7.30;99.90;;;;;;5063048;28;20456;-67
2024/01/01 10:09:27;;;;;;;0.10;0.10;;;7.30;99.90;;;;;;5065548;28;20036;-67
2024/01/01 10:12:07;;;;;;;7.10;0.47;;;7.40;99.90;;;;;;5067164;28;20033;-68
2024/01/01 10:14:33;;;;;;;0.10;0.10;;;7.50;99.90;;;;;;5064846;28;20529;-67
2024/01/01 10:17:12;;;;;;;0.10;0.10;;;7.60;99.90;;;;;;5065486;28;20148;-67
2024/01/01 10:20:01;;;;;;;0.10;0.10;;;7.50;99.90;;;;;;5061674;28;20048;-67
2024/01/01 10:22:31;;;;;;;0.30;0.30;;;7.50;99.90;;;;;;5062776;28;20238;-65
2024/01/01 10:25:13;;;;;;;0.00;0.00;;;7.40;99.90;;;;;;5066635;28;20048;-68
2024/01/01 10:27:43;;;;;;;0.10;0.10;;;7.30;99.90;;;;;;5067509;28;20043;-68
2024/01/01 10:30:09;;;;;;;0.20;0.20;;;7.40;99.90;;;;;;5066928;28;20051;-67
2024/01/01 10:32:35;;;;;;;0.68;0.40;;;7.40;99.90;;;;;;5064730;28;20315;-67
2024/01/01 10:35:05;;;;;;;0.10;0.10;;;7.50;99.90;;;;;;5068146;28;20064;-68
2024/01/01 10:37:32;;;;;;;0.10;0.10;;;7.50;99.90;;;;;;5062834;28;20036;-66
2024/01/01 10:40:04;;;;;;;1.10;0.65;;;7.60;99.90;;;;;;5059397;28;20329;-68
2024/01/01 10:42:33;;;;;;;0.00;0.00;;;7.60;99.90;;;;;;5067087;28;20036;-68
2024/01/01 10:45:03;;;;;;;0.03;0.03;;;7.50;99.90;;;;;;5086862;28;20045;-68
2024/01/01 10:47:29;;;;;;;0.10;0.10;;;7.60;99.90;;;;;;5065351;28;20047;-67
2024/01/01 10:50:15;;;;;;;0.10;0.10;;;7.50;99.90;;;;;;5061856;28;20041;-67
2024/01/01 10:53:12;;;;;;;0.10;0.10;;;7.50;99.90;;;;;;5077404;28;20036;-67
2024/01/01 10:56:05;;;;;;;0.95;0.60;;;7.50;99.90;;;;;;5059768;28;20047;-68
2024/01/01 10:58:57;;;;;;;0.10;0.10;;;7.50;99.90;;;;;;5077730;28;20082;-66
2024/01/01 11:01:24;;;;;;;2.53;0.35;;;7.50;99.90;;;;;;5064335;28;20063;-66
2024/01/01 11:03:50;;;;;;;0.10;0.10;;;7.50;99.90;;;;;;5063704;28;20047;-66
2024/01/01 11:06:35;;;;;;;1.25;0.68;;;7.60;99.90;;;;;;5058535;28;20052;-66
2024/01/01 11:09:18;;;;;;;0.00;0.00;;;7.70;99.90;;;;;;5062191;28;20080;-68
2024/01/01 11:11:55;;;;;;;0.30;0.30;;;7.70;99.90;;;;;;5063410;28;20048;-68
2024/01/01 11:14:32;;;;;;;0.00;0.00;;;7.70;99.90;;;;;;5063438;28;20174;-67
2024/01/01 11:17:02;;;;;;;0.20;0.20;;;7.80;99.90;;;;;;5060111;28;20057;-68
2024/01/01 11:19:46;;;;;;;0.05;0.05;;;7.80;99.90;;;;;;5055897;28;20044;-67
2024/01/01 11:22:20;;;;;;;0.10;0.10;;;7.90;99.90;;;;;;5096529;28;20067;-67
2024/01/01 11:24:50;;;;;;;0.65;0.65;;;7.90;99.90;;;;;;5051793;28;20095;-68
2024/01/01 11:27:33;;;;;;;0.20;0.05;;;8.00;99.90;;;;;;5054539;28;20068;-68
2024/01/01 11:30:01;;;;;;;0.20;0.20;;;8.00;99.90;;;;;;5083012;28;20072;-67
2024/01/01 11:32:27;;;;;;;0.40;0.40;;;8.00;99.90;;;;;;5053953;28;20395;-68
2024/01/01 11:35:12;;;;;;;0.25;0.17;;;8.00;99.90;;;;;;5053882;28;20036;-68
2024/01/01 11:37:43;;;;;;;0.10;0.10;;;8.00;99.90;;;;;;5032094;28;20182;-69
2024/01/01 11:40:10;;;;;;;0.52;0.52;;;8.00;99.90;;;;;;5082108;28;20044;-69
2024/01/01 11:42:36;;;;;;;0.20;0.20;;;8.10;99.90;;;;;;5045870;28;20496;-65
2024/01/01 11:45:08;;;;;;;0.13;0.13;;;8.10;99.90;;;;;;5051910;28;20105;-69
2024/01/01 11:47:34;;;;;;;0.20;0.20;;;8.10;99.90;;;;;;5066871;28;20447;-68
2024/01/01 11:50:02;;;;;;;1.85;0.70;;;8.10;99.90;;;;;;5054533;28;20036;-68
2024/01/01 11:52:27;;;;;;;0.20;0.20;;;8.10;99.90;;;;;;5052572;28;20033;-68
2024/01/01 11:54:53;;;;;;;0.13;0.10;;;8.20;99.90;;;;;;5055495;28;20063;-68
2024/01/01 11:57:19;;;;;;;0.10;0.10;;;8.20;99.90;;;;;;5086601;28;20085;-67
2024/01/01 11:59:45;;;;;;;0.43;0.10;;;8.10;99.90;;;;;;5062171;28;20048;-67
2024/01/01 12:02:11;;;;;;;0.00;0.00;;;8.10;99.90;;;;;;5065317;28;20155;-68
2024/01/01 12:04:39;;;;;;;0.00;0.00;;;8.10;99.90;;;;;;5066949;28;20067;-67
2024/01/01 12:07:05;;;;;;;22.13;0.80;;;8.20;99.90;;;;;;5061544;28;20033;-67
2024/01/01 12:09:31;;;;;;;1.15;0.95;;;8.20;99.90;;;;;;5065934;28;20472;-67
2024/01/01 12:12:05;;;;;;;0.55;0.15;;;8.30;99.90;;;;;;5068388;28;20076;-68
2024/01/01 12:14:31;;;;;;;0.20;0.20;;;8.20;99.90;;;;;;5050815;28;20044;-67
2024/01/01 12:16:57;;;;;;;0.10;0.10;;;8.20;99.90;;;;;;5058926;28;20048;-69
2024/01/01 12:19:23;;;;;;;4.03;0.75;;;8.20;99.90;;;;;;5057733;28;20041;-68
2024/01/01 12:21:51;;;;;;;0.38;0.38;;;8.30;99.90;;;;;;5063357;28;20399;-68
2024/01/01 12:24:21;;;;;;;0.30;0.30;;;8.30;99.90;;;;;;5061256;28;20399;-67
2024/01/01 12:26:50;;;;;;;0.38;0.38;;;8.40;99.90;;;;;;5091385;28;20049;-68
2024/01/01 12:29:22;;;;;;;9.02;0.45;;;8.40;99.90;;;;;;5069003;28;20131;-68
2024/01/01 12:31:50;;;;;;;0.63;0.40;;;8.40;99.90;;;;;;5085843;28;20556;-69
2024/01/01 12:34:18;;;;;;;0.10;0.10;;;8.40;99.90;;;;;;5062186;28;20382;-68
2024/01/01 12:36:46;;;;;;;0.30;0.30;;;8.30;99.90;;;;;;5097878;28;20082;-67
2024/01/01 12:39:12;;;;;;;0.90;0.90;;;8.30;99.90;;;;;;5064239;28;20476;-66
2024/01/01 12:41:38;;;;;;;0.65;0.40;;;8.30;99.90;;;;;;5067512;28;20131;-68
2024/01/01 12:44:04;;;;;;;0.73;0.73;;;8.40;99.90;;;;;;5062440;28;20051;-70
2024/01/01 12:46:30;;;;;;;0.30;0.30;;;8.50;99.90;;;;;;5068885;28;20033;-66
2024/01/01 12:48:56;;;;;;;0.20;0.20;;;8.50;99.90;;;;;;5067778;28;20044;-68
2024/01/01 12:51:24;;;;;;;0.30;0.30;;;8.50;99.90;;;;;;5057918;28;20114;-68
2024/01/01 12:53:53;;;;;;;0.43;0.30;;;8.50;99.90;;;;;;5058191;28;20045;-68
2024/01/01 12:56:19;;;;;;;0.10;0.10;;;8.50;99.90;;;;;;5065139;28;20036;-68
2024/01/01 12:58:45;;;;;;;0.10;0.10;;;8.50;99.90;;;;;;5068081;28;20479;-69